CheckWX is a tool to help pilots better visualize weather data.  It is not intended as a substitute for an official pre-flight weather briefing.

07:12:34 UTC

KSRE METAR
Seminole Municipal Airport
Seminole, Oklahoma, USA
Current

18 mins ago

KSRE 260655Z AUTO 05007KT 10SM +RA FEW004 SCT011 OVC045 18/17 A3008 RMK AO2 LTG DSNT N AND NE P0012
Observed
May-26 @ 06:55 UTC
Wind
  • 050° at 7 KTS
Visibility
10 SM
Flight Rules
VFR
Conditions
Heavy Rain
Cloud Levels
  • Few at 400' AGL
  • Scattered at 1,100' AGL
  • Overcast at 4,500' AGL
Temperature
18°C / 64°F
Dewpoint
17°C / 63°F
Humidity
94%
Altimeter
30.08" Hg
Pressure
1018.62 hPa
Current Rain
0.12"
Previous

38 mins ago

KSRE 260635Z AUTO 00000KT 5SM VCTS RA SCT003 SCT013 OVC048 18/17 A3010 RMK AO2 LTG DSNT ALQDS
Observed
May-26 @ 06:35 UTC
Visibility
5 SM
Flight Rules
MVFR
Conditions
Area Thunderstorm, Rain
Cloud Levels
  • Scattered at 300' AGL
  • Scattered at 1,300' AGL
  • Overcast at 4,800' AGL
Temperature
18°C / 64°F
Dewpoint
17°C / 63°F
Humidity
94%
Altimeter
30.1" Hg
Pressure
1019.32 hPa
Previous

58 mins ago

KSRE 260615Z AUTO 03005G10KT 5SM VCTS RA FEW004 SCT034 OVC050 18/17 A3010 RMK AO2 LTG DSNT ALQDS
Observed
May-26 @ 06:15 UTC
Wind
  • 030° at 5 KTS
  • Gusting to 10 KTS
Visibility
5 SM
Flight Rules
MVFR
Conditions
Area Thunderstorm, Rain
Cloud Levels
  • Few at 400' AGL
  • Scattered at 3,400' AGL
  • Overcast at 5,000' AGL
Temperature
18°C / 64°F
Dewpoint
17°C / 63°F
Humidity
94%
Altimeter
30.1" Hg
Pressure
1019.32 hPa